Terminal Aerodrome Forecast
Issued by NWS

Home | Current Version | Previous Version | Text Only | Print | Product List | Glossary On
Versions: 1 2 3 4 5 6 7 8 9 10 11 12 13 14 15 16 17 18 19 20
000
FTUS41 KBOX 281720
TAFHYA
TAF
KHYA 281720Z 2818/0118 14006KT P6SM VCSH BKN090
     FM010300 18007KT 5SM BR VCSH OVC040
     FM010700 18007KT 3SM -RA BR OVC015
     FM011100 20010G19KT 3SM BR VCSH OVC008
     FM011500 22014G24KT 6SM BR VCSH OVC004 WS020/23045KT=

USA.gov is the U.S. government's official web portal to all federal, state and local government web resources and services.